sensor_id;sensor_type;location;lat;lon;timestamp;pressure;altitude;pressure_sealevel;temperature;humidity
54248;BME280;40161;39.768;2.722;2023-05-03T00:01:00;101474.47;;;15.94;68.04
54248;BME280;40161;39.768;2.722;2023-05-03T00:03:26;101470.63;;;15.20;69.75
54248;BME280;40161;39.768;2.722;2023-05-03T00:05:52;101486.91;;;15.29;70.24
54248;BME280;40161;39.768;2.722;2023-05-03T00:08:18;101481.13;;;15.44;68.46
54248;BME280;40161;39.768;2.722;2023-05-03T00:10:43;101478.50;;;15.18;70.53
54248;BME280;40161;39.768;2.722;2023-05-03T00:13:09;101495.22;;;15.70;69.07
54248;BME280;40161;39.768;2.722;2023-05-03T00:15:34;101486.34;;;15.12;70.06
54248;BME280;40161;39.768;2.722;2023-05-03T00:18:00;101478.34;;;15.04;70.22
54248;BME280;40161;39.768;2.722;2023-05-03T00:20:25;101472.50;;;15.50;69.09
54248;BME280;40161;39.768;2.722;2023-05-03T00:22:51;101472.09;;;15.10;69.44
54248;BME280;40161;39.768;2.722;2023-05-03T00:25:17;101465.06;;;14.83;71.79
54248;BME280;40161;39.768;2.722;2023-05-03T00:27:42;101482.66;;;14.67;73.53
54248;BME280;40161;39.768;2.722;2023-05-03T00:30:08;101443.03;;;14.90;71.68
54248;BME280;40161;39.768;2.722;2023-05-03T00:32:35;101443.84;;;14.57;73.75
54248;BME280;40161;39.768;2.722;2023-05-03T00:35:00;101447.94;;;14.66;73.62
54248;BME280;40161;39.768;2.722;2023-05-03T00:37:26;101472.13;;;15.14;72.66
54248;BME280;40161;39.768;2.722;2023-05-03T00:39:52;101481.59;;;15.13;71.35
54248;BME280;40161;39.768;2.722;2023-05-03T00:42:18;101477.22;;;14.75;74.27
54248;BME280;40161;39.768;2.722;2023-05-03T00:44:43;101427.69;;;14.59;73.05
54248;BME280;40161;39.768;2.722;2023-05-03T00:47:09;101457.41;;;15.03;70.79
54248;BME280;40161;39.768;2.722;2023-05-03T00:49:35;101465.13;;;15.24;69.72
54248;BME280;40161;39.768;2.722;2023-05-03T00:52:01;101476.59;;;15.26;68.71
54248;BME280;40161;39.768;2.722;2023-05-03T00:54:28;101463.75;;;15.07;69.96
54248;BME280;40161;39.768;2.722;2023-05-03T00:56:55;101453.91;;;14.42;72.56
54248;BME280;40161;39.768;2.722;2023-05-03T00:59:21;101438.66;;;14.52;72.45
54248;BME280;40161;39.768;2.722;2023-05-03T01:01:48;101458.91;;;14.96;69.62
54248;BME280;40161;39.768;2.722;2023-05-03T01:04:15;101456.31;;;14.47;71.49
54248;BME280;40161;39.768;2.722;2023-05-03T01:12:28;101451.41;;;14.33;71.73
54248;BME280;40161;39.768;2.722;2023-05-03T01:18:02;101467.41;;;14.20;72.70
54248;BME280;40161;39.768;2.722;2023-05-03T01:20:33;101466.31;;;14.25;72.59
54248;BME280;40161;39.768;2.722;2023-05-03T01:23:04;101463.53;;;14.25;73.17
54248;BME280;40161;39.768;2.722;2023-05-03T01:25:34;101446.53;;;13.96;72.25
54248;BME280;40161;39.768;2.722;2023-05-03T01:28:00;101437.38;;;13.89;73.18
54248;BME280;40161;39.768;2.722;2023-05-03T01:30:26;101455.91;;;13.88;74.54
54248;BME280;40161;39.768;2.722;2023-05-03T01:38:09;101463.47;;;15.15;70.07
54248;BME280;40161;39.768;2.722;2023-05-03T01:40:41;101406.91;;;15.09;68.01
54248;BME280;40161;39.768;2.722;2023-05-03T01:43:10;101426.94;;;14.62;70.63
54248;BME280;40161;39.768;2.722;2023-05-03T01:45:36;101424.84;;;14.85;69.14
54248;BME280;40161;39.768;2.722;2023-05-03T01:48:08;101420.81;;;15.16;66.38
54248;BME280;40161;39.768;2.722;2023-05-03T01:50:33;101436.50;;;15.05;67.69
54248;BME280;40161;39.768;2.722;2023-05-03T01:52:59;101440.09;;;14.72;68.40
54248;BME280;40161;39.768;2.722;2023-05-03T01:55:25;101428.94;;;14.05;71.79
54248;BME280;40161;39.768;2.722;2023-05-03T01:57:50;101438.16;;;13.89;73.12
54248;BME280;40161;39.768;2.722;2023-05-03T02:00:16;101425.16;;;13.63;72.38
54248;BME280;40161;39.768;2.722;2023-05-03T02:02:41;101438.22;;;13.66;73.51
54248;BME280;40161;39.768;2.722;2023-05-03T02:05:08;101434.84;;;13.76;73.13
54248;BME280;40161;39.768;2.722;2023-05-03T02:07:34;101415.16;;;13.78;72.41
54248;BME280;40161;39.768;2.722;2023-05-03T02:09:59;101426.81;;;13.68;73.07
54248;BME280;40161;39.768;2.722;2023-05-03T02:12:25;101442.97;;;13.69;73.94
54248;BME280;40161;39.768;2.722;2023-05-03T02:14:50;101414.59;;;13.95;72.37
54248;BME280;40161;39.768;2.722;2023-05-03T02:17:16;101421.38;;;14.58;70.04
54248;BME280;40161;39.768;2.722;2023-05-03T02:19:43;101422.19;;;14.62;69.60
54248;BME280;40161;39.768;2.722;2023-05-03T02:22:08;101426.09;;;14.58;70.03
54248;BME280;40161;39.768;2.722;2023-05-03T02:24:34;101420.78;;;14.42;71.17
54248;BME280;40161;39.768;2.722;2023-05-03T02:27:01;101425.16;;;14.77;68.99
54248;BME280;40161;39.768;2.722;2023-05-03T02:29:29;101404.41;;;13.99;70.44
54248;BME280;40161;39.768;2.722;2023-05-03T02:31:55;101409.72;;;13.59;74.17
54248;BME280;40161;39.768;2.722;2023-05-03T02:34:21;101406.31;;;13.42;74.50
54248;BME280;40161;39.768;2.722;2023-05-03T02:36:46;101406.94;;;13.13;75.89
54248;BME280;40161;39.768;2.722;2023-05-03T02:39:12;101426.78;;;12.99;78.06
54248;BME280;40161;39.768;2.722;2023-05-03T02:41:37;101406.03;;;13.05;78.08
54248;BME280;40161;39.768;2.722;2023-05-03T02:44:03;101441.59;;;13.56;75.62
54248;BME280;40161;39.768;2.722;2023-05-03T02:46:29;101405.50;;;13.42;74.93
54248;BME280;40161;39.768;2.722;2023-05-03T02:48:55;101425.69;;;13.46;75.41
54248;BME280;40161;39.768;2.722;2023-05-03T02:51:20;101409.88;;;13.96;72.68
54248;BME280;40161;39.768;2.722;2023-05-03T02:53:46;101418.78;;;14.72;69.35
54248;BME280;40161;39.768;2.722;2023-05-03T02:56:11;101419.94;;;14.41;69.86
54248;BME280;40161;39.768;2.722;2023-05-03T02:58:37;101401.22;;;13.44;74.53
54248;BME280;40161;39.768;2.722;2023-05-03T03:01:03;101439.81;;;13.94;73.03
54248;BME280;40161;39.768;2.722;2023-05-03T03:03:28;101428.09;;;13.74;74.23
54248;BME280;40161;39.768;2.722;2023-05-03T03:05:54;101419.72;;;14.23;71.55
54248;BME280;40161;39.768;2.722;2023-05-03T03:08:20;101419.03;;;14.60;69.83
54248;BME280;40161;39.768;2.722;2023-05-03T03:10:45;101428.78;;;14.84;68.66
54248;BME280;40161;39.768;2.722;2023-05-03T03:13:11;101427.78;;;14.66;68.10
54248;BME280;40161;39.768;2.722;2023-05-03T03:15:36;101423.56;;;13.62;72.87
54248;BME280;40161;39.768;2.722;2023-05-03T03:18:02;101422.34;;;13.60;73.47
54248;BME280;40161;39.768;2.722;2023-05-03T03:20:27;101422.56;;;13.74;73.65
54248;BME280;40161;39.768;2.722;2023-05-03T03:22:53;101404.19;;;13.13;76.12
54248;BME280;40161;39.768;2.722;2023-05-03T03:25:19;101411.22;;;13.29;76.19
54248;BME280;40161;39.768;2.722;2023-05-03T03:27:45;101420.78;;;13.62;74.96
54248;BME280;40161;39.768;2.722;2023-05-03T03:30:10;101401.03;;;13.34;75.29
54248;BME280;40161;39.768;2.722;2023-05-03T03:32:36;101424.75;;;13.38;76.55
54248;BME280;40161;39.768;2.722;2023-05-03T03:35:02;101422.72;;;12.93;79.03
54248;BME280;40161;39.768;2.722;2023-05-03T03:37:27;101428.81;;;13.71;75.64
54248;BME280;40161;39.768;2.722;2023-05-03T03:39:53;101410.78;;;13.27;77.90
54248;BME280;40161;39.768;2.722;2023-05-03T03:42:18;101421.97;;;13.38;77.92
54248;BME280;40161;39.768;2.722;2023-05-03T03:44:46;101385.91;;;13.73;74.73
54248;BME280;40161;39.768;2.722;2023-05-03T03:47:11;101405.13;;;13.66;76.10
54248;BME280;40161;39.768;2.722;2023-05-03T03:49:37;101415.28;;;13.62;76.24
54248;BME280;40161;39.768;2.722;2023-05-03T03:52:02;101400.91;;;13.49;76.32
54248;BME280;40161;39.768;2.722;2023-05-03T03:54:28;101422.13;;;13.72;73.99
54248;BME280;40161;39.768;2.722;2023-05-03T03:56:53;101423.47;;;13.82;74.27
54248;BME280;40161;39.768;2.722;2023-05-03T03:59:19;101429.63;;;13.98;74.05
54248;BME280;40161;39.768;2.722;2023-05-03T04:01:44;101423.03;;;14.63;69.44
54248;BME280;40161;39.768;2.722;2023-05-03T04:04:10;101425.94;;;13.87;73.67
54248;BME280;40161;39.768;2.722;2023-05-03T04:06:35;101429.50;;;13.64;74.85
54248;BME280;40161;39.768;2.722;2023-05-03T04:09:01;101420.34;;;13.14;78.04
54248;BME280;40161;39.768;2.722;2023-05-03T04:11:26;101407.78;;;12.94;78.70
54248;BME280;40161;39.768;2.722;2023-05-03T04:13:52;101403.81;;;13.14;77.09
54248;BME280;40161;39.768;2.722;2023-05-03T04:16:17;101420.28;;;13.11;79.06
54248;BME280;40161;39.768;2.722;2023-05-03T04:18:43;101399.34;;;13.25;77.60
54248;BME280;40161;39.768;2.722;2023-05-03T04:21:09;101408.66;;;13.93;75.36
54248;BME280;40161;39.768;2.722;2023-05-03T04:23:35;101413.41;;;13.66;74.77
54248;BME280;40161;39.768;2.722;2023-05-03T04:26:01;101431.25;;;13.49;76.89
54248;BME280;40161;39.768;2.722;2023-05-03T04:28:26;101392.91;;;13.67;74.92
54248;BME280;40161;39.768;2.722;2023-05-03T04:30:52;101410.81;;;14.07;74.06
54248;BME280;40161;39.768;2.722;2023-05-03T04:33:19;101414.19;;;14.23;73.43
54248;BME280;40161;39.768;2.722;2023-05-03T04:35:48;101418.41;;;14.14;73.17
54248;BME280;40161;39.768;2.722;2023-05-03T04:38:14;101424.72;;;13.61;76.04
54248;BME280;40161;39.768;2.722;2023-05-03T04:40:39;101401.84;;;13.84;75.11
54248;BME280;40161;39.768;2.722;2023-05-03T04:43:05;101364.78;;;13.58;75.03
54248;BME280;40161;39.768;2.722;2023-05-03T04:45:31;101410.06;;;14.10;74.65
54248;BME280;40161;39.768;2.722;2023-05-03T04:47:56;101427.13;;;13.40;78.08
54248;BME280;40161;39.768;2.722;2023-05-03T04:50:22;101414.91;;;12.95;79.56
54248;BME280;40161;39.768;2.722;2023-05-03T04:52:47;101416.81;;;13.14;78.69
54248;BME280;40161;39.768;2.722;2023-05-03T04:55:13;101414.19;;;12.78;80.71
54248;BME280;40161;39.768;2.722;2023-05-03T04:57:38;101416.94;;;12.78;81.73
54248;BME280;40161;39.768;2.722;2023-05-03T05:00:04;101423.44;;;12.90;81.87
54248;BME280;40161;39.768;2.722;2023-05-03T05:02:35;101452.75;;;13.63;79.48
54248;BME280;40161;39.768;2.722;2023-05-03T05:05:01;101412.31;;;13.48;76.82
54248;BME280;40161;39.768;2.722;2023-05-03T05:07:26;101449.69;;;14.21;74.76
54248;BME280;40161;39.768;2.722;2023-05-03T05:09:52;101467.78;;;14.19;75.57
54248;BME280;40161;39.768;2.722;2023-05-03T05:12:17;101471.34;;;14.49;74.30
54248;BME280;40161;39.768;2.722;2023-05-03T05:14:43;101485.91;;;14.46;74.65
54248;BME280;40161;39.768;2.722;2023-05-03T05:17:09;101456.22;;;14.40;73.30
54248;BME280;40161;39.768;2.722;2023-05-03T05:19:34;101455.22;;;14.21;73.48
54248;BME280;40161;39.768;2.722;2023-05-03T05:22:00;101489.81;;;14.15;75.72
54248;BME280;40161;39.768;2.722;2023-05-03T05:24:26;101491.72;;;13.62;77.52
54248;BME280;40161;39.768;2.722;2023-05-03T05:26:51;101487.84;;;13.43;78.79
54248;BME280;40161;39.768;2.722;2023-05-03T05:29:17;101489.38;;;14.13;75.67
54248;BME280;40161;39.768;2.722;2023-05-03T05:31:43;101509.16;;;13.92;77.43
54248;BME280;40161;39.768;2.722;2023-05-03T05:34:08;101511.75;;;14.35;75.28
54248;BME280;40161;39.768;2.722;2023-05-03T05:36:34;101503.38;;;14.28;74.86
54248;BME280;40161;39.768;2.722;2023-05-03T05:38:59;101483.56;;;14.48;73.02
54248;BME280;40161;39.768;2.722;2023-05-03T05:41:25;101514.72;;;14.45;74.47
54248;BME280;40161;39.768;2.722;2023-05-03T05:43:50;101514.97;;;14.10;75.92
54248;BME280;40161;39.768;2.722;2023-05-03T05:46:17;101519.03;;;13.93;76.96
54248;BME280;40161;39.768;2.722;2023-05-03T05:48:45;101509.44;;;14.10;76.46
54248;BME280;40161;39.768;2.722;2023-05-03T05:51:10;101479.09;;;13.84;76.89
54248;BME280;40161;39.768;2.722;2023-05-03T05:53:36;101539.69;;;14.83;74.21
54248;BME280;40161;39.768;2.722;2023-05-03T05:56:01;101515.06;;;13.68;78.41
54248;BME280;40161;39.768;2.722;2023-05-03T05:58:27;101514.75;;;13.50;80.78
54248;BME280;40161;39.768;2.722;2023-05-03T06:00:57;101527.88;;;13.57;80.60
54248;BME280;40161;39.768;2.722;2023-05-03T06:03:22;101546.31;;;13.75;81.52
54248;BME280;40161;39.768;2.722;2023-05-03T06:05:48;101553.25;;;14.12;79.28
54248;BME280;40161;39.768;2.722;2023-05-03T06:08:13;101541.53;;;14.18;77.99
54248;BME280;40161;39.768;2.722;2023-05-03T06:10:39;101533.00;;;14.31;76.37
54248;BME280;40161;39.768;2.722;2023-05-03T06:13:04;101554.69;;;14.55;75.65
54248;BME280;40161;39.768;2.722;2023-05-03T06:15:30;101538.38;;;14.46;75.73
54248;BME280;40161;39.768;2.722;2023-05-03T06:17:55;101546.78;;;14.54;75.78
54248;BME280;40161;39.768;2.722;2023-05-03T06:20:21;101530.78;;;14.40;75.78
54248;BME280;40161;39.768;2.722;2023-05-03T06:22:48;101556.03;;;14.65;75.99
54248;BME280;40161;39.768;2.722;2023-05-03T06:25:15;101514.97;;;14.37;75.49
54248;BME280;40161;39.768;2.722;2023-05-03T06:27:40;101527.84;;;14.52;75.82
54248;BME280;40161;39.768;2.722;2023-05-03T06:30:06;101568.00;;;14.76;75.35
54248;BME280;40161;39.768;2.722;2023-05-03T06:32:32;101529.88;;;14.59;75.86
54248;BME280;40161;39.768;2.722;2023-05-03T06:34:58;101475.50;;;14.36;74.92
54248;BME280;40161;39.768;2.722;2023-05-03T06:37:27;101526.28;;;14.85;74.35
54248;BME280;40161;39.768;2.722;2023-05-03T06:39:53;101518.03;;;14.88;74.03
54248;BME280;40161;39.768;2.722;2023-05-03T06:42:18;101549.25;;;15.23;74.29
54248;BME280;40161;39.768;2.722;2023-05-03T06:44:44;101526.72;;;15.24;73.83
54248;BME280;40161;39.768;2.722;2023-05-03T06:47:10;101535.16;;;15.35;72.46
54248;BME280;40161;39.768;2.722;2023-05-03T06:49:35;101550.81;;;15.57;72.72
54248;BME280;40161;39.768;2.722;2023-05-03T06:52:01;101532.63;;;15.56;72.19
54248;BME280;40161;39.768;2.722;2023-05-03T06:54:26;101514.81;;;15.54;72.21
54248;BME280;40161;39.768;2.722;2023-05-03T06:56:52;101527.69;;;15.76;71.49
54248;BME280;40161;39.768;2.722;2023-05-03T06:59:17;101523.75;;;15.77;71.79
54248;BME280;40161;39.768;2.722;2023-05-03T07:01:43;101544.81;;;15.93;71.43
54248;BME280;40161;39.768;2.722;2023-05-03T07:04:09;101556.06;;;16.10;71.47
54248;BME280;40161;39.768;2.722;2023-05-03T08:33:00;101545.59;;;18.86;55.91
54248;BME280;40161;39.768;2.722;2023-05-03T08:35:25;101544.38;;;18.90;55.37
54248;BME280;40161;39.768;2.722;2023-05-03T08:37:52;101534.38;;;19.04;54.81
54248;BME280;40161;39.768;2.722;2023-05-03T08:40:20;101532.41;;;19.01;54.80
54248;BME280;40161;39.768;2.722;2023-05-03T08:42:46;101523.63;;;19.06;54.69
54248;BME280;40161;39.768;2.722;2023-05-03T08:45:14;101549.41;;;19.20;55.61
54248;BME280;40161;39.768;2.722;2023-05-03T08:47:44;101545.38;;;19.29;54.76
54248;BME280;40161;39.768;2.722;2023-05-03T08:50:10;101542.53;;;19.36;52.87
54248;BME280;40161;39.768;2.722;2023-05-03T08:52:38;101545.63;;;19.52;52.91
54248;BME280;40161;39.768;2.722;2023-05-03T08:55:05;101546.38;;;19.60;52.61
54248;BME280;40161;39.768;2.722;2023-05-03T08:57:32;101541.19;;;19.62;52.09
54248;BME280;40161;39.768;2.722;2023-05-03T08:59:58;101551.84;;;19.78;50.91
54248;BME280;40161;39.768;2.722;2023-05-03T09:02:26;101542.63;;;19.84;49.79
54248;BME280;40161;39.768;2.722;2023-05-03T09:04:53;101547.31;;;19.95;49.84
54248;BME280;40161;39.768;2.722;2023-05-03T09:07:18;101548.09;;;19.99;50.38
54248;BME280;40161;39.768;2.722;2023-05-03T09:09:47;101538.88;;;20.05;51.03
54248;BME280;40161;39.768;2.722;2023-05-03T09:12:35;101542.81;;;20.11;50.37
54248;BME280;40161;39.768;2.722;2023-05-03T09:15:02;101543.88;;;20.25;50.25
54248;BME280;40161;39.768;2.722;2023-05-03T09:17:28;101543.91;;;20.21;50.36
54248;BME280;40161;39.768;2.722;2023-05-03T09:19:55;101555.72;;;20.36;50.90
54248;BME280;40161;39.768;2.722;2023-05-03T09:22:24;101552.13;;;20.35;50.75
54248;BME280;40161;39.768;2.722;2023-05-03T09:25:00;101558.38;;;20.47;51.36
54248;BME280;40161;39.768;2.722;2023-05-03T09:27:26;101551.97;;;20.50;49.14
54248;BME280;40161;39.768;2.722;2023-05-03T09:29:53;101553.19;;;20.49;49.77
54248;BME280;40161;39.768;2.722;2023-05-03T09:32:19;101555.50;;;20.57;50.38
54248;BME280;40161;39.768;2.722;2023-05-03T09:34:47;101559.44;;;20.63;49.51
54248;BME280;40161;39.768;2.722;2023-05-03T09:37:12;101555.09;;;20.59;49.54
54248;BME280;40161;39.768;2.722;2023-05-03T09:39:42;101565.34;;;20.69;50.11
54248;BME280;40161;39.768;2.722;2023-05-03T09:44:43;101563.56;;;20.86;49.50
54248;BME280;40161;39.768;2.722;2023-05-03T09:47:09;101559.19;;;20.85;50.12
54248;BME280;40161;39.768;2.722;2023-05-03T09:49:36;101545.31;;;20.78;48.57
54248;BME280;40161;39.768;2.722;2023-05-03T09:52:03;101561.13;;;20.88;49.17
54248;BME280;40161;39.768;2.722;2023-05-03T09:54:29;101554.41;;;20.85;48.63
54248;BME280;40161;39.768;2.722;2023-05-03T09:57:00;101558.31;;;20.92;48.57
54248;BME280;40161;39.768;2.722;2023-05-03T09:59:27;101544.78;;;20.90;49.59
54248;BME280;40161;39.768;2.722;2023-05-03T10:01:56;101541.91;;;20.97;49.51
54248;BME280;40161;39.768;2.722;2023-05-03T10:04:25;101560.47;;;21.11;48.69
54248;BME280;40161;39.768;2.722;2023-05-03T10:06:56;101555.16;;;21.20;49.31
54248;BME280;40161;39.768;2.722;2023-05-03T10:09:30;101555.16;;;21.20;48.26
54248;BME280;40161;39.768;2.722;2023-05-03T10:11:59;101553.56;;;21.19;47.85
54248;BME280;40161;39.768;2.722;2023-05-03T10:14:26;101534.41;;;21.21;48.68
54248;BME280;40161;39.768;2.722;2023-05-03T10:17:01;101546.63;;;21.35;49.62
54248;BME280;40161;39.768;2.722;2023-05-03T10:19:49;101556.06;;;21.44;48.58
54248;BME280;40161;39.768;2.722;2023-05-03T10:30:33;101551.03;;;21.59;48.69
54248;BME280;40161;39.768;2.722;2023-05-03T10:35:52;101549.09;;;21.56;47.42
54248;BME280;40161;39.768;2.722;2023-05-03T10:38:23;101541.56;;;21.53;47.40
54248;BME280;40161;39.768;2.722;2023-05-03T10:40:49;101551.66;;;21.70;48.14
54248;BME280;40161;39.768;2.722;2023-05-03T10:46:05;101529.25;;;21.74;47.31
54248;BME280;40161;39.768;2.722;2023-05-03T10:48:33;101545.00;;;21.88;47.17
54248;BME280;40161;39.768;2.722;2023-05-03T10:51:34;101536.19;;;21.89;46.17
54248;BME280;40161;39.768;2.722;2023-05-03T10:54:01;101527.13;;;21.81;46.19
54248;BME280;40161;39.768;2.722;2023-05-03T10:56:26;101523.34;;;21.92;46.80
54248;BME280;40161;39.768;2.722;2023-05-03T10:58:52;101521.97;;;22.03;46.17
54248;BME280;40161;39.768;2.722;2023-05-03T11:01:22;101512.81;;;22.03;45.47
54248;BME280;40161;39.768;2.722;2023-05-03T11:04:08;101511.47;;;22.11;48.01
54248;BME280;40161;39.768;2.722;2023-05-03T11:06:36;101517.25;;;22.24;48.99
54248;BME280;40161;39.768;2.722;2023-05-03T11:09:04;101503.75;;;22.19;49.12
54248;BME280;40161;39.768;2.722;2023-05-03T11:11:31;101515.47;;;22.34;49.78
54248;BME280;40161;39.768;2.722;2023-05-03T11:13:57;101513.03;;;22.36;49.30
54248;BME280;40161;39.768;2.722;2023-05-03T11:16:23;101518.13;;;22.41;48.72
54248;BME280;40161;39.768;2.722;2023-05-03T11:18:49;101485.06;;;22.36;48.38
54248;BME280;40161;39.768;2.722;2023-05-03T11:21:15;101502.00;;;22.48;48.95
54248;BME280;40161;39.768;2.722;2023-05-03T11:23:42;101499.84;;;22.56;48.16
54248;BME280;40161;39.768;2.722;2023-05-03T11:26:08;101492.75;;;22.51;47.44
54248;BME280;40161;39.768;2.722;2023-05-03T11:28:37;101502.00;;;22.48;47.81
54248;BME280;40161;39.768;2.722;2023-05-03T11:31:03;101494.03;;;22.47;48.27
54248;BME280;40161;39.768;2.722;2023-05-03T11:33:31;101500.34;;;22.51;47.25
54248;BME280;40161;39.768;2.722;2023-05-03T11:36:00;101479.34;;;22.43;46.97
54248;BME280;40161;39.768;2.722;2023-05-03T11:38:29;101465.09;;;22.37;47.48
54248;BME280;40161;39.768;2.722;2023-05-03T11:40:55;101512.03;;;22.66;46.42
54248;BME280;40161;39.768;2.722;2023-05-03T11:43:21;101495.41;;;22.59;45.47
54248;BME280;40161;39.768;2.722;2023-05-03T11:45:48;101492.91;;;22.64;47.26
54248;BME280;40161;39.768;2.722;2023-05-03T11:48:16;101494.66;;;22.74;46.73
54248;BME280;40161;39.768;2.722;2023-05-03T11:50:49;101485.06;;;22.75;45.90
54248;BME280;40161;39.768;2.722;2023-05-03T11:53:17;101451.88;;;22.58;44.62
54248;BME280;40161;39.768;2.722;2023-05-03T11:55:45;101479.81;;;22.78;44.85
54248;BME280;40161;39.768;2.722;2023-05-03T11:58:16;101487.34;;;22.81;45.17
54248;BME280;40161;39.768;2.722;2023-05-03T12:00:47;101482.41;;;22.88;44.20
54248;BME280;40161;39.768;2.722;2023-05-03T12:05:46;101471.94;;;22.92;42.63
54248;BME280;40161;39.768;2.722;2023-05-03T12:08:12;101476.59;;;22.99;43.37
54248;BME280;40161;39.768;2.722;2023-05-03T12:10:40;101485.97;;;23.09;43.06
54248;BME280;40161;39.768;2.722;2023-05-03T12:13:06;101482.19;;;22.99;41.66
54248;BME280;40161;39.768;2.722;2023-05-03T12:15:34;101474.50;;;23.03;41.53
54248;BME280;40161;39.768;2.722;2023-05-03T12:18:06;101480.34;;;23.09;41.83
54248;BME280;40161;39.768;2.722;2023-05-03T12:20:33;101481.16;;;23.09;40.55
54248;BME280;40161;39.768;2.722;2023-05-03T12:23:05;101481.78;;;23.17;41.00
54248;BME280;40161;39.768;2.722;2023-05-03T12:25:33;101475.25;;;23.24;42.07
54248;BME280;40161;39.768;2.722;2023-05-03T12:28:00;101459.31;;;23.20;40.89
54248;BME280;40161;39.768;2.722;2023-05-03T12:30:27;101470.75;;;23.26;40.96
54248;BME280;40161;39.768;2.722;2023-05-03T12:32:53;101467.91;;;23.30;40.14
54248;BME280;40161;39.768;2.722;2023-05-03T12:35:20;101463.78;;;23.34;40.42
54248;BME280;40161;39.768;2.722;2023-05-03T12:37:47;101469.81;;;23.49;40.30
54248;BME280;40161;39.768;2.722;2023-05-03T12:40:14;101450.75;;;23.44;40.46
54248;BME280;40161;39.768;2.722;2023-05-03T12:42:41;101445.84;;;23.48;39.26
54248;BME280;40161;39.768;2.722;2023-05-03T12:45:08;101443.72;;;23.52;39.89
54248;BME280;40161;39.768;2.722;2023-05-03T12:47:34;101437.34;;;23.52;39.82
54248;BME280;40161;39.768;2.722;2023-05-03T12:50:03;101456.53;;;23.69;40.18
54248;BME280;40161;39.768;2.722;2023-05-03T12:52:29;101455.81;;;23.65;40.64
54248;BME280;40161;39.768;2.722;2023-05-03T12:54:56;101455.75;;;23.69;39.56
54248;BME280;40161;39.768;2.722;2023-05-03T12:57:22;101459.25;;;23.73;39.62
54248;BME280;40161;39.768;2.722;2023-05-03T12:59:47;101456.25;;;23.80;39.35
54248;BME280;40161;39.768;2.722;2023-05-03T13:02:18;101432.72;;;23.61;38.50
54248;BME280;40161;39.768;2.722;2023-05-03T13:04:43;101455.34;;;23.67;38.61
54248;BME280;40161;39.768;2.722;2023-05-03T13:07:09;101458.91;;;23.71;39.73
54248;BME280;40161;39.768;2.722;2023-05-03T13:09:38;101451.78;;;23.83;39.21
54248;BME280;40161;39.768;2.722;2023-05-03T13:12:04;101454.59;;;23.83;39.01
54248;BME280;40161;39.768;2.722;2023-05-03T13:14:30;101460.09;;;23.86;39.41
54248;BME280;40161;39.768;2.722;2023-05-03T13:16:55;101463.94;;;23.92;40.11
54248;BME280;40161;39.768;2.722;2023-05-03T13:19:21;101435.75;;;23.83;39.54
54248;BME280;40161;39.768;2.722;2023-05-03T13:21:46;101433.75;;;23.84;38.85
54248;BME280;40161;39.768;2.722;2023-05-03T13:24:13;101439.63;;;23.73;39.33
54248;BME280;40161;39.768;2.722;2023-05-03T13:26:38;101451.97;;;23.76;38.88
54248;BME280;40161;39.768;2.722;2023-05-03T13:29:04;101453.22;;;23.75;39.28
54248;BME280;40161;39.768;2.722;2023-05-03T13:31:30;101422.19;;;23.49;39.12
54248;BME280;40161;39.768;2.722;2023-05-03T13:33:55;101455.81;;;23.65;39.42
54248;BME280;40161;39.768;2.722;2023-05-03T13:36:27;101445.78;;;23.68;41.54
54248;BME280;40161;39.768;2.722;2023-05-03T13:38:53;101449.25;;;23.56;40.43
54248;BME280;40161;39.768;2.722;2023-05-03T13:41:20;101446.53;;;23.52;42.20
54248;BME280;40161;39.768;2.722;2023-05-03T13:43:46;101445.31;;;23.53;42.56
54248;BME280;40161;39.768;2.722;2023-05-03T13:46:12;101444.69;;;23.45;42.71
54248;BME280;40161;39.768;2.722;2023-05-03T13:48:38;101445.16;;;23.44;42.41
54248;BME280;40161;39.768;2.722;2023-05-03T13:51:11;101433.22;;;23.40;43.17
54248;BME280;40161;39.768;2.722;2023-05-03T13:53:37;101421.50;;;23.45;43.09
54248;BME280;40161;39.768;2.722;2023-05-03T13:56:05;101424.66;;;23.47;42.92
54248;BME280;40161;39.768;2.722;2023-05-03T13:58:30;101418.53;;;23.52;42.34
54248;BME280;40161;39.768;2.722;2023-05-03T14:00:56;101414.84;;;23.55;43.15
54248;BME280;40161;39.768;2.722;2023-05-03T14:03:22;101436.28;;;23.62;42.20
54248;BME280;40161;39.768;2.722;2023-05-03T14:05:51;101416.88;;;23.55;42.94
54248;BME280;40161;39.768;2.722;2023-05-03T14:08:16;101431.47;;;23.62;43.44
54248;BME280;40161;39.768;2.722;2023-05-03T14:10:42;101425.78;;;23.66;43.90
54248;BME280;40161;39.768;2.722;2023-05-03T14:13:08;101426.41;;;23.57;42.64
54248;BME280;40161;39.768;2.722;2023-05-03T14:15:38;101399.38;;;23.51;42.58
54248;BME280;40161;39.768;2.722;2023-05-03T14:18:04;101415.22;;;23.57;42.24
54248;BME280;40161;39.768;2.722;2023-05-03T14:20:31;101386.53;;;23.37;43.50
54248;BME280;40161;39.768;2.722;2023-05-03T14:22:57;101389.91;;;23.28;44.11
54248;BME280;40161;39.768;2.722;2023-05-03T14:25:22;101395.88;;;23.30;44.69
54248;BME280;40161;39.768;2.722;2023-05-03T14:27:48;101400.53;;;23.37;43.53
54248;BME280;40161;39.768;2.722;2023-05-03T14:30:13;101402.88;;;23.38;43.51
54248;BME280;40161;39.768;2.722;2023-05-03T14:32:39;101394.91;;;23.37;43.70
54248;BME280;40161;39.768;2.722;2023-05-03T14:35:05;101393.31;;;23.36;44.97
54248;BME280;40161;39.768;2.722;2023-05-03T14:37:31;101397.00;;;23.49;45.35
54248;BME280;40161;39.768;2.722;2023-05-03T14:39:57;101385.19;;;23.58;45.33
54248;BME280;40161;39.768;2.722;2023-05-03T14:42:23;101394.69;;;23.60;45.04
54248;BME280;40161;39.768;2.722;2023-05-03T14:44:48;101389.00;;;23.64;45.27
54248;BME280;40161;39.768;2.722;2023-05-03T14:47:14;101385.78;;;23.65;44.60